createdAt,value
2022-09-14T00:03:07.337Z,100322.28
2022-09-14T00:08:10.731Z,100325.50
2022-09-14T00:13:14.841Z,100324.06
2022-09-14T00:18:19.660Z,100315.81
2022-09-14T00:23:22.420Z,100314.38
2022-09-14T00:28:25.201Z,100302.19
2022-09-14T00:33:29.291Z,100293.34
2022-09-14T00:38:32.253Z,100282.59
2022-09-14T00:43:51.972Z,100281.69
2022-09-14T00:48:59.940Z,100263.03
2022-09-14T00:54:03.570Z,100252.91
2022-09-14T00:59:10.485Z,100254.41
2022-09-14T01:04:14.635Z,100256.06
2022-09-14T01:09:28.342Z,100249.31
2022-09-14T01:14:36.061Z,100249.66
2022-09-14T01:20:03.915Z,100261.78
2022-09-14T01:25:16.880Z,100264.69
2022-09-14T01:30:24.375Z,100278.38
2022-09-14T01:35:31.987Z,100282.81
2022-09-14T01:40:38.369Z,100275.34
2022-09-14T01:45:47.243Z,100266.94
2022-09-14T01:50:54.220Z,100260.41
2022-09-14T01:56:02.102Z,100263.44
2022-09-14T02:01:10.194Z,100267.00
2022-09-14T02:06:20.753Z,100270.22
2022-09-14T02:11:23.767Z,100274.31
2022-09-14T02:16:28.359Z,100269.63
2022-09-14T02:21:33.169Z,100260.84
2022-09-14T02:26:37.249Z,100271.00
2022-09-14T02:31:54.955Z,100254.75
2022-09-14T02:37:03.050Z,100254.59
2022-09-14T02:42:18.047Z,100252.47
2022-09-14T02:47:27.139Z,100255.28
2022-09-14T02:52:35.069Z,100249.34
2022-09-14T02:58:06.974Z,100244.66
2022-09-14T03:03:12.824Z,100249.72
2022-09-14T03:08:16.000Z,100244.50
2022-09-14T03:13:19.073Z,100245.22
2022-09-14T03:18:23.143Z,100239.97
2022-09-14T03:23:25.845Z,100241.84
2022-09-14T03:28:28.564Z,100236.88
2022-09-14T03:33:32.679Z,100224.00
2022-09-14T03:38:35.406Z,100223.13
2022-09-14T03:43:38.436Z,100225.06
2022-09-14T03:48:43.131Z,100227.38
2022-09-14T03:53:46.557Z,100211.31
2022-09-14T03:58:50.208Z,100202.00
2022-09-14T04:03:54.328Z,100209.72
2022-09-14T04:08:57.136Z,100196.28
2022-09-14T04:14:02.341Z,100198.56
2022-09-14T04:19:06.454Z,100189.69
2022-09-14T04:24:15.865Z,100191.91
2022-09-14T04:29:18.990Z,100200.06
2022-09-14T04:34:23.117Z,100202.28
2022-09-14T04:39:26.308Z,100213.84
2022-09-14T04:44:29.322Z,100222.53
2022-09-14T04:49:33.511Z,100217.66
2022-09-14T04:54:36.241Z,100214.44
2022-09-14T04:59:38.993Z,100209.41
2022-09-14T05:04:43.123Z,100198.91
2022-09-14T05:09:45.969Z,100197.59
2022-09-14T05:14:48.818Z,100194.03
2022-09-14T05:19:53.666Z,100195.81
2022-09-14T05:24:56.455Z,100188.31
2022-09-14T05:29:59.210Z,100190.94
2022-09-14T05:35:03.909Z,100194.75
2022-09-14T05:40:08.713Z,100192.56
2022-09-14T05:45:11.913Z,100201.34
2022-09-14T05:50:16.423Z,100198.69
2022-09-14T05:55:19.189Z,100203.06
2022-09-14T06:00:22.573Z,100199.25
2022-09-14T06:05:26.756Z,100198.72
2022-09-14T06:10:29.560Z,100196.81
2022-09-14T06:15:34.982Z,100190.47
2022-09-14T06:20:39.405Z,100195.28
2022-09-14T06:25:42.148Z,100197.50
2022-09-14T06:30:45.195Z,100199.78
2022-09-14T06:35:57.544Z,100193.78
2022-09-14T06:41:01.750Z,100195.06
2022-09-14T06:46:07.395Z,100192.44
2022-09-14T06:51:20.166Z,100184.16
2022-09-14T06:56:22.957Z,100184.41
2022-09-14T07:01:26.780Z,100180.66
2022-09-14T07:06:32.500Z,100176.63
2022-09-14T07:11:35.606Z,100187.75
2022-09-14T07:16:40.165Z,100189.13
2022-09-14T07:21:44.813Z,100199.44
2022-09-14T07:26:47.667Z,100190.56
2022-09-14T07:31:52.718Z,100189.47
2022-09-14T07:36:57.029Z,100186.53
2022-09-14T07:42:01.776Z,100183.34
2022-09-14T07:47:05.092Z,100186.22
2022-09-14T07:52:09.509Z,100198.28
2022-09-14T07:57:12.351Z,100196.72
2022-09-14T08:02:31.085Z,100190.31
2022-09-14T08:07:35.610Z,100180.28
2022-09-14T08:12:38.629Z,100178.53
2022-09-14T08:17:41.953Z,100181.59
2022-09-14T08:22:49.271Z,100177.31
2022-09-14T08:27:52.142Z,100181.97
2022-09-14T08:32:58.886Z,100163.63
2022-09-14T08:38:05.450Z,100165.06
2022-09-14T08:43:11.681Z,100163.94
2022-09-14T08:48:22.204Z,100166.38
2022-09-14T08:53:27.075Z,100155.09
2022-09-14T08:58:48.618Z,100158.78
2022-09-14T09:04:06.008Z,100142.28
2022-09-14T09:09:18.975Z,100139.22
2022-09-14T09:14:28.367Z,100139.63
2022-09-14T09:19:34.625Z,100131.34
2022-09-14T09:24:42.962Z,100135.59
2022-09-14T09:29:45.794Z,100128.50
2022-09-14T09:34:49.817Z,100124.88
2022-09-14T09:40:36.313Z,100132.56
2022-09-14T09:45:58.710Z,100128.53
2022-09-14T09:51:07.982Z,100120.53
2022-09-14T09:56:18.854Z,100104.91
2022-09-14T10:01:27.673Z,100098.75
2022-09-14T10:06:30.669Z,100117.00
2022-09-14T10:11:37.888Z,100109.19
2022-09-14T10:16:42.057Z,100114.25
2022-09-14T10:22:17.709Z,100112.63
2022-09-14T10:27:38.030Z,100107.13
2022-09-14T10:32:44.450Z,100103.84
2022-09-14T10:37:58.049Z,100097.41
2022-09-14T10:43:14.328Z,100108.19
2022-09-14T10:48:31.978Z,100111.88
2022-09-14T10:53:50.167Z,100108.91
2022-09-14T10:59:24.005Z,100101.59
2022-09-14T11:04:48.486Z,100110.25
2022-09-14T11:10:01.904Z,100108.03
2022-09-14T11:15:15.242Z,100112.69
2022-09-14T11:20:26.619Z,100104.81
2022-09-14T11:25:37.718Z,100102.50
2022-09-14T11:30:47.168Z,100107.19
2022-09-14T11:35:54.296Z,100098.91
2022-09-14T11:41:03.230Z,100116.69
2022-09-14T11:46:12.537Z,100123.56
2022-09-14T11:51:22.493Z,100116.69
2022-09-14T11:56:28.338Z,100118.38
2022-09-14T12:01:36.874Z,100103.75
2022-09-14T12:06:49.628Z,100093.66
2022-09-14T12:11:54.968Z,100090.16
2022-09-14T12:22:45.019Z,100089.06
2022-09-14T12:27:51.785Z,100086.50
2022-09-14T12:32:55.938Z,100088.06
2022-09-14T12:37:59.005Z,100088.88
2022-09-14T12:43:48.388Z,100082.31
2022-09-14T12:49:02.727Z,100087.03
2022-09-14T12:54:18.661Z,100091.88
2022-09-14T12:59:25.802Z,100084.53
2022-09-14T13:04:33.130Z,100083.56
2022-09-14T13:09:38.597Z,100079.28
2022-09-14T13:14:49.666Z,100081.84
2022-09-14T13:19:59.011Z,100077.34
2022-09-14T13:25:02.451Z,100061.41
2022-09-14T13:30:08.150Z,100065.16
2022-09-14T13:35:18.864Z,100058.22
2022-09-14T13:40:25.113Z,100052.47
2022-09-14T13:45:28.508Z,100049.03
2022-09-14T13:50:34.797Z,100043.06
2022-09-14T13:55:45.492Z,100037.47
2022-09-14T14:00:58.225Z,100027.47
2022-09-14T14:06:20.265Z,100031.44
2022-09-14T14:11:29.999Z,100026.47
2022-09-14T14:22:13.034Z,100015.91
2022-09-14T14:44:53.958Z,100004.41
2022-09-14T14:55:37.459Z,99987.59
2022-09-14T15:01:05.621Z,99979.06
2022-09-14T15:06:39.752Z,99973.66
2022-09-14T15:11:45.765Z,99972.50
2022-09-14T15:16:50.560Z,99973.66
2022-09-14T15:22:02.490Z,99958.91
2022-09-14T15:27:07.036Z,99960.94
2022-09-14T15:32:10.016Z,99955.13
2022-09-14T15:37:12.894Z,99954.91
2022-09-14T15:42:17.838Z,99952.28
2022-09-14T15:47:20.598Z,99957.53
2022-09-14T15:52:23.638Z,99949.13
2022-09-14T15:57:28.958Z,99957.41
2022-09-14T16:02:31.849Z,99956.88
2022-09-14T16:07:34.974Z,99955.50
2022-09-14T16:12:39.171Z,99959.53
2022-09-14T16:17:42.056Z,99960.09
2022-09-14T16:22:44.887Z,99953.16
2022-09-14T16:27:49.903Z,99947.41
2022-09-14T16:32:53.003Z,99949.56
2022-09-14T16:37:55.841Z,99960.38
2022-09-14T16:43:00.150Z,99947.22
2022-09-14T16:48:03.692Z,99950.56
2022-09-14T16:53:06.533Z,99956.81
2022-09-14T16:58:15.221Z,99955.81
2022-09-14T17:03:18.239Z,99957.09
2022-09-14T17:08:21.187Z,99955.66
2022-09-14T17:13:26.230Z,99953.28
2022-09-14T17:18:29.446Z,99959.94
2022-09-14T17:23:32.707Z,99968.41
2022-09-14T17:28:37.765Z,99968.25
2022-09-14T17:33:40.620Z,99969.25
2022-09-14T17:38:44.656Z,99969.25
2022-09-14T17:43:53.543Z,99965.50
2022-09-14T17:48:58.477Z,99968.31
2022-09-14T17:54:02.838Z,99977.22
2022-09-14T17:59:08.775Z,99975.28
2022-09-14T18:04:13.268Z,99973.09
2022-09-14T18:09:17.527Z,99964.41
2022-09-14T18:14:21.683Z,99967.53
2022-09-14T18:19:24.710Z,99963.72
2022-09-14T18:24:27.682Z,99960.16
2022-09-14T18:29:33.639Z,99969.09
2022-09-14T18:34:36.919Z,99958.44
2022-09-14T18:39:39.739Z,99961.94
2022-09-14T18:44:45.195Z,99966.94
2022-09-14T18:49:49.436Z,99965.97
2022-09-14T18:54:52.662Z,99968.69
2022-09-14T18:59:57.032Z,99963.41
2022-09-14T19:04:59.882Z,99966.31
2022-09-14T19:10:03.084Z,99962.88
2022-09-14T19:15:08.202Z,99960.44
2022-09-14T19:20:11.706Z,99960.75
2022-09-14T19:25:14.726Z,99958.84
2022-09-14T19:30:19.232Z,99955.88
2022-09-14T19:35:23.367Z,99952.91
2022-09-14T19:40:27.661Z,99961.38
2022-09-14T19:45:32.098Z,99954.94
2022-09-14T19:50:35.207Z,99959.13
2022-09-14T19:55:38.099Z,99954.50
2022-09-14T20:00:42.619Z,99953.28
2022-09-14T20:05:45.492Z,99940.63
2022-09-14T20:10:48.297Z,99945.69
2022-09-14T20:15:52.654Z,99948.44
2022-09-14T20:20:55.492Z,99943.88
2022-09-14T20:26:03.835Z,99941.81
2022-09-14T20:31:12.006Z,99941.63
2022-09-14T20:36:16.049Z,99944.75
2022-09-14T20:41:19.651Z,99953.16
2022-09-14T20:46:25.620Z,99953.72
2022-09-14T20:51:29.812Z,99954.47
2022-09-14T20:56:35.231Z,99955.94
2022-09-14T21:01:41.662Z,99959.41
2022-09-14T21:06:47.701Z,99953.34
2022-09-14T21:11:50.503Z,99953.25
2022-09-14T21:16:56.739Z,99955.72
2022-09-14T21:21:59.755Z,99956.44
2022-09-14T21:27:02.537Z,99942.47
2022-09-14T21:32:09.000Z,99945.84
2022-09-14T21:37:12.193Z,99947.41
2022-09-14T21:42:14.961Z,99938.44
2022-09-14T21:47:19.126Z,99937.00
2022-09-14T21:52:21.898Z,99934.34
2022-09-14T21:57:24.899Z,99933.41
2022-09-14T22:02:29.334Z,99926.22
2022-09-14T22:07:32.125Z,99926.16
2022-09-14T22:12:35.049Z,99929.38
2022-09-14T22:17:39.268Z,99925.22
2022-09-14T22:22:44.249Z,99922.91
2022-09-14T22:27:47.094Z,99920.22
2022-09-14T22:32:51.214Z,99914.84
2022-09-14T22:37:53.986Z,99908.00
2022-09-14T22:42:56.745Z,99911.28
2022-09-14T22:48:02.370Z,99908.72
2022-09-14T22:53:05.462Z,99903.22
2022-09-14T22:58:08.665Z,99901.06
2022-09-14T23:03:14.165Z,99889.50
2022-09-14T23:08:17.044Z,99896.34
2022-09-14T23:13:20.104Z,99870.06
2022-09-14T23:18:24.216Z,99867.84
2022-09-14T23:23:26.928Z,99882.75
2022-09-14T23:28:29.883Z,99882.06
2022-09-14T23:33:34.497Z,99871.91
2022-09-14T23:38:37.281Z,99873.06
2022-09-14T23:43:40.160Z,99868.91
2022-09-14T23:48:44.960Z,99870.81
2022-09-14T23:53:47.984Z,99868.31
2022-09-14T23:58:50.957Z,99863.91
